Предлагаем Вашему вниманию английскую версию страницы: AUTOTAF.ME 37946 - aviation weather forecast Paragachay

AUTOTAF 37946 - авиапрогноз Парагачаы

Сегодня рассвет 03:39 UTC, восход солнца 04:08 UTC,
местный полдень 09:08 UTC, заход солнца 14:09 UTC,
наступление темноты 14:37 UTC.

Краткий прогноз 37946 на 9 часов

AUTOTAF.ME 37946 252000Z 2521/2606 30003MPS CAVOK

Детальный прогноз 37946 на 24 часа

AUTOTAF.ME 37946 252000Z 2521/2621 30003MPS 9999 SKC TXM01/2612Z TNM08/2521Z

Подробный табличный прогноз

Время (UTC) miniAUTOTAF на 3 ч WX FZLVL
M AGL
ICE TURB Т
(°С)
Тd
(°С)
f(%) QNH
(гПа)
WIND/T
18 30003MPS 9999 SKC SFC -7 -12 68 1027 ...
21 30003MPS 9999 SKC SFC -8 -13 67 1028 ...
26.01.2021
00 30004MPS 9999 FEW250 SFC -8 -13 69 1027 ...
03 30004MPS 9999 FEW140 SFC -8 -13 70 1027 ...
06 30004MPS 9999 FEW140 SFC MOD FL170/FL180 -6 -11 64 1027 ...
09 29004MPS 9999 FEW150 SFC -2 -7 67 1026 ...
12 29004MPS 9999 FEW150 SFC -1 -6 69 1024 ...
15 31003MPS 9999 SKC SFC -6 -8 84 1027 ...
18 30003MPS 9999 SKC SFC -6 -9 77 1027 ...
21 31003MPS 9999 SKC SFC -6 -9 80 1027 ...
27.01.2021
00 31003MPS 9999 SKC SFC -6 -9 81 1027 ...
03 31003MPS 9999 FEW220 SFC -6 -9 80 1026 ...
06 30003MPS 9999 FEW150 SFC -3 -7 73 1026 ...
09 29003MPS 9999 FEW180 SFC 1 -4 72 1023 ...
12 29003MPS 9999 OVC169 SFC 2 -2 76 1021 ...
15 30003MPS 9999 OVC130 SFC -2 -4 87 1022 ...


Широта 39.1°, долгота 45.9°, высота 2218 м абс.
Средняя высота рельефа местности 1766 м абс.
Прогнозы обновляются четыре раза в сутки: в 02, 08, 14, 20 ч всемирного времени.


Выбрать прогноз по другой модели Парагачаы
Онлайн-сводка гроз по Парагачаы (для РФ и ближнего зарубежья)
Карта фактических гроз в окрестностях Парагачаы
Динамические прогностические карты (ventusky.com)
Прогностическая карта высоты нижней границы облаков по Парагачаы (windy.com)
Выбрать другой город

Прогноз предназначен для личного научно-познавательного использования частными лицами
и не предназначен для принятия важных решений и выполнения реальных полётов воздушных судов

При копировании или ином использовании любых материалов данного сайта ссылка на © meteocenter.asia обязательна.

0.64/1.1